sensor_id;sensor_type;location;lat;lon;timestamp;P1;durP1;ratioP1;P2;durP2;ratioP2
28427;SDS011;15662;49.128;8.520;2023-04-03T00:01:22;1.55;;;1.15;;
28427;SDS011;15662;49.128;8.520;2023-04-03T00:03:50;1.42;;;1.33;;
28427;SDS011;15662;49.128;8.520;2023-04-03T00:06:18;1.95;;;1.40;;
28427;SDS011;15662;49.128;8.520;2023-04-03T00:08:47;1.48;;;1.30;;
28427;SDS011;15662;49.128;8.520;2023-04-03T00:11:15;3.97;;;1.52;;
28427;SDS011;15662;49.128;8.520;2023-04-03T00:13:44;1.63;;;1.45;;
28427;SDS011;15662;49.128;8.520;2023-04-03T00:16:12;1.73;;;1.45;;
28427;SDS011;15662;49.128;8.520;2023-04-03T00:18:40;2.25;;;1.30;;
28427;SDS011;15662;49.128;8.520;2023-04-03T00:21:09;1.75;;;1.30;;
28427;SDS011;15662;49.128;8.520;2023-04-03T00:23:39;2.63;;;1.58;;
28427;SDS011;15662;49.128;8.520;2023-04-03T00:26:07;1.23;;;1.10;;
28427;SDS011;15662;49.128;8.520;2023-04-03T00:28:35;1.45;;;1.20;;
28427;SDS011;15662;49.128;8.520;2023-04-03T00:31:03;1.40;;;1.30;;
28427;SDS011;15662;49.128;8.520;2023-04-03T00:33:32;2.08;;;1.30;;
28427;SDS011;15662;49.128;8.520;2023-04-03T00:36:04;1.73;;;1.42;;
28427;SDS011;15662;49.128;8.520;2023-04-03T00:38:37;1.67;;;1.50;;
28427;SDS011;15662;49.128;8.520;2023-04-03T00:41:05;1.40;;;1.20;;
28427;SDS011;15662;49.128;8.520;2023-04-03T00:43:34;1.52;;;1.33;;
28427;SDS011;15662;49.128;8.520;2023-04-03T00:46:02;1.52;;;1.42;;
28427;SDS011;15662;49.128;8.520;2023-04-03T00:53:57;1.30;;;1.20;;
28427;SDS011;15662;49.128;8.520;2023-04-03T00:56:28;1.75;;;1.50;;
28427;SDS011;15662;49.128;8.520;2023-04-03T00:58:59;1.65;;;1.25;;
28427;SDS011;15662;49.128;8.520;2023-04-03T01:01:35;2.65;;;1.30;;
28427;SDS011;15662;49.128;8.520;2023-04-03T01:04:05;1.55;;;1.35;;
28427;SDS011;15662;49.128;8.520;2023-04-03T01:06:55;1.42;;;1.27;;
28427;SDS011;15662;49.128;8.520;2023-04-03T01:09:26;1.80;;;1.40;;
28427;SDS011;15662;49.128;8.520;2023-04-03T01:12:13;1.35;;;1.25;;
28427;SDS011;15662;49.128;8.520;2023-04-03T01:14:52;2.15;;;1.45;;
28427;SDS011;15662;49.128;8.520;2023-04-03T01:17:31;1.88;;;1.70;;
28427;SDS011;15662;49.128;8.520;2023-04-03T01:23:06;2.60;;;1.60;;
28427;SDS011;15662;49.128;8.520;2023-04-03T01:25:59;1.77;;;1.40;;
28427;SDS011;15662;49.128;8.520;2023-04-03T01:28:32;2.70;;;1.40;;
28427;SDS011;15662;49.128;8.520;2023-04-03T01:31:06;1.65;;;1.50;;
28427;SDS011;15662;49.128;8.520;2023-04-03T01:33:45;2.20;;;1.58;;
28427;SDS011;15662;49.128;8.520;2023-04-03T01:36:20;2.70;;;1.52;;
28427;SDS011;15662;49.128;8.520;2023-04-03T01:38:54;2.55;;;1.55;;
28427;SDS011;15662;49.128;8.520;2023-04-03T01:41:23;1.67;;;1.50;;
28427;SDS011;15662;49.128;8.520;2023-04-03T01:43:58;2.92;;;1.40;;
28427;SDS011;15662;49.128;8.520;2023-04-03T01:46:25;1.17;;;1.10;;
28427;SDS011;15662;49.128;8.520;2023-04-03T01:48:53;1.58;;;1.40;;
28427;SDS011;15662;49.128;8.520;2023-04-03T01:51:21;1.40;;;1.30;;
28427;SDS011;15662;49.128;8.520;2023-04-03T01:53:49;1.40;;;1.30;;
28427;SDS011;15662;49.128;8.520;2023-04-03T01:56:18;2.03;;;1.50;;
28427;SDS011;15662;49.128;8.520;2023-04-03T01:58:47;2.03;;;1.50;;
28427;SDS011;15662;49.128;8.520;2023-04-03T02:01:16;1.83;;;1.30;;
28427;SDS011;15662;49.128;8.520;2023-04-03T02:03:45;2.00;;;1.38;;
28427;SDS011;15662;49.128;8.520;2023-04-03T02:06:13;1.50;;;1.40;;
28427;SDS011;15662;49.128;8.520;2023-04-03T02:08:40;1.75;;;1.23;;
28427;SDS011;15662;49.128;8.520;2023-04-03T02:11:08;1.45;;;1.30;;
28427;SDS011;15662;49.128;8.520;2023-04-03T02:13:36;2.97;;;1.60;;
28427;SDS011;15662;49.128;8.520;2023-04-03T02:16:08;2.35;;;1.40;;
28427;SDS011;15662;49.128;8.520;2023-04-03T02:18:37;1.88;;;1.42;;
28427;SDS011;15662;49.128;8.520;2023-04-03T02:21:05;1.50;;;1.40;;
28427;SDS011;15662;49.128;8.520;2023-04-03T02:23:33;2.88;;;1.45;;
28427;SDS011;15662;49.128;8.520;2023-04-03T02:26:04;3.35;;;1.40;;
28427;SDS011;15662;49.128;8.520;2023-04-03T02:28:33;2.05;;;1.40;;
28427;SDS011;15662;49.128;8.520;2023-04-03T02:31:01;1.88;;;1.40;;
28427;SDS011;15662;49.128;8.520;2023-04-03T02:33:30;1.50;;;1.40;;
28427;SDS011;15662;49.128;8.520;2023-04-03T02:35:59;1.60;;;1.23;;
28427;SDS011;15662;49.128;8.520;2023-04-03T02:38:26;2.47;;;1.60;;
28427;SDS011;15662;49.128;8.520;2023-04-03T02:41:04;1.95;;;1.27;;
28427;SDS011;15662;49.128;8.520;2023-04-03T02:43:36;1.92;;;1.30;;
28427;SDS011;15662;49.128;8.520;2023-04-03T02:46:06;2.10;;;1.40;;
28427;SDS011;15662;49.128;8.520;2023-04-03T02:48:34;1.55;;;1.30;;
28427;SDS011;15662;49.128;8.520;2023-04-03T02:51:03;1.38;;;1.25;;
28427;SDS011;15662;49.128;8.520;2023-04-03T02:53:31;2.00;;;1.25;;
28427;SDS011;15662;49.128;8.520;2023-04-03T02:56:06;1.33;;;1.25;;
28427;SDS011;15662;49.128;8.520;2023-04-03T02:58:33;1.88;;;1.48;;
28427;SDS011;15662;49.128;8.520;2023-04-03T03:01:03;2.40;;;1.40;;
28427;SDS011;15662;49.128;8.520;2023-04-03T03:03:31;3.00;;;1.48;;
28427;SDS011;15662;49.128;8.520;2023-04-03T03:06:09;1.50;;;1.40;;
28427;SDS011;15662;49.128;8.520;2023-04-03T03:08:40;1.65;;;1.42;;
28427;SDS011;15662;49.128;8.520;2023-04-03T03:11:08;1.90;;;1.50;;
28427;SDS011;15662;49.128;8.520;2023-04-03T03:13:37;1.42;;;1.33;;
28427;SDS011;15662;49.128;8.520;2023-04-03T03:16:04;1.33;;;1.23;;
28427;SDS011;15662;49.128;8.520;2023-04-03T03:18:34;5.25;;;1.55;;
28427;SDS011;15662;49.128;8.520;2023-04-03T03:21:02;2.05;;;1.45;;
28427;SDS011;15662;49.128;8.520;2023-04-03T03:23:31;3.67;;;1.77;;
28427;SDS011;15662;49.128;8.520;2023-04-03T03:26:02;2.33;;;1.50;;
28427;SDS011;15662;49.128;8.520;2023-04-03T03:28:37;2.38;;;1.50;;
28427;SDS011;15662;49.128;8.520;2023-04-03T03:31:06;2.78;;;1.38;;
28427;SDS011;15662;49.128;8.520;2023-04-03T03:33:38;3.05;;;1.45;;
28427;SDS011;15662;49.128;8.520;2023-04-03T03:36:07;1.58;;;1.40;;
28427;SDS011;15662;49.128;8.520;2023-04-03T03:38:36;3.72;;;1.40;;
28427;SDS011;15662;49.128;8.520;2023-04-03T03:41:04;2.65;;;1.50;;
28427;SDS011;15662;49.128;8.520;2023-04-03T03:43:33;2.05;;;1.30;;
28427;SDS011;15662;49.128;8.520;2023-04-03T03:46:03;3.08;;;1.38;;
28427;SDS011;15662;49.128;8.520;2023-04-03T03:48:31;2.50;;;1.33;;
28427;SDS011;15662;49.128;8.520;2023-04-03T03:50:59;2.00;;;1.50;;
28427;SDS011;15662;49.128;8.520;2023-04-03T03:53:31;2.17;;;1.50;;
28427;SDS011;15662;49.128;8.520;2023-04-03T03:56:06;1.95;;;1.60;;
28427;SDS011;15662;49.128;8.520;2023-04-03T03:58:36;1.90;;;1.35;;
28427;SDS011;15662;49.128;8.520;2023-04-03T04:01:04;2.35;;;1.33;;
28427;SDS011;15662;49.128;8.520;2023-04-03T04:03:39;1.83;;;1.40;;
28427;SDS011;15662;49.128;8.520;2023-04-03T04:06:09;2.05;;;1.30;;
28427;SDS011;15662;49.128;8.520;2023-04-03T04:08:37;1.70;;;1.60;;
28427;SDS011;15662;49.128;8.520;2023-04-03T04:11:08;2.22;;;1.50;;
28427;SDS011;15662;49.128;8.520;2023-04-03T04:13:38;1.30;;;0.90;;
28427;SDS011;15662;49.128;8.520;2023-04-03T04:16:07;1.60;;;1.50;;
28427;SDS011;15662;49.128;8.520;2023-04-03T04:18:35;1.60;;;1.35;;
28427;SDS011;15662;49.128;8.520;2023-04-03T04:21:03;2.40;;;1.73;;
28427;SDS011;15662;49.128;8.520;2023-04-03T04:23:31;1.88;;;1.63;;
28427;SDS011;15662;49.128;8.520;2023-04-03T04:26:00;1.60;;;1.50;;
28427;SDS011;15662;49.128;8.520;2023-04-03T04:28:32;1.63;;;1.52;;
28427;SDS011;15662;49.128;8.520;2023-04-03T04:31:02;2.38;;;1.55;;
28427;SDS011;15662;49.128;8.520;2023-04-03T04:33:30;5.43;;;2.20;;
28427;SDS011;15662;49.128;8.520;2023-04-03T04:36:01;2.08;;;1.88;;
28427;SDS011;15662;49.128;8.520;2023-04-03T04:38:30;2.20;;;1.63;;
28427;SDS011;15662;49.128;8.520;2023-04-03T04:40:58;2.00;;;1.70;;
28427;SDS011;15662;49.128;8.520;2023-04-03T04:43:26;1.95;;;1.60;;
28427;SDS011;15662;49.128;8.520;2023-04-03T04:46:04;1.40;;;1.30;;
28427;SDS011;15662;49.128;8.520;2023-04-03T04:48:41;1.92;;;1.50;;
28427;SDS011;15662;49.128;8.520;2023-04-03T04:51:10;1.70;;;1.38;;
28427;SDS011;15662;49.128;8.520;2023-04-03T04:53:39;1.83;;;1.63;;
28427;SDS011;15662;49.128;8.520;2023-04-03T04:56:09;2.72;;;1.70;;
28427;SDS011;15662;49.128;8.520;2023-04-03T04:58:39;1.63;;;1.52;;
28427;SDS011;15662;49.128;8.520;2023-04-03T05:01:08;2.13;;;1.85;;
28427;SDS011;15662;49.128;8.520;2023-04-03T05:03:47;2.15;;;1.77;;
28427;SDS011;15662;49.128;8.520;2023-04-03T05:06:16;1.95;;;1.33;;
28427;SDS011;15662;49.128;8.520;2023-04-03T05:08:46;3.30;;;2.00;;
28427;SDS011;15662;49.128;8.520;2023-04-03T05:11:14;2.92;;;2.22;;
28427;SDS011;15662;49.128;8.520;2023-04-03T05:13:44;2.67;;;2.42;;
28427;SDS011;15662;49.128;8.520;2023-04-03T05:16:12;5.13;;;2.78;;
28427;SDS011;15662;49.128;8.520;2023-04-03T05:18:40;3.17;;;2.33;;
28427;SDS011;15662;49.128;8.520;2023-04-03T05:21:13;2.08;;;1.77;;
28427;SDS011;15662;49.128;8.520;2023-04-03T05:23:46;2.35;;;1.85;;
28427;SDS011;15662;49.128;8.520;2023-04-03T05:26:14;2.78;;;1.88;;
28427;SDS011;15662;49.128;8.520;2023-04-03T05:28:43;4.03;;;1.77;;
28427;SDS011;15662;49.128;8.520;2023-04-03T05:31:12;1.80;;;1.70;;
28427;SDS011;15662;49.128;8.520;2023-04-03T05:33:41;2.75;;;1.85;;
28427;SDS011;15662;49.128;8.520;2023-04-03T05:36:14;2.55;;;2.10;;
28427;SDS011;15662;49.128;8.520;2023-04-03T05:38:49;4.55;;;1.80;;
28427;SDS011;15662;49.128;8.520;2023-04-03T05:41:18;3.83;;;2.60;;
28427;SDS011;15662;49.128;8.520;2023-04-03T05:43:48;2.22;;;2.03;;
28427;SDS011;15662;49.128;8.520;2023-04-03T05:46:18;3.25;;;1.77;;
28427;SDS011;15662;49.128;8.520;2023-04-03T05:48:51;2.22;;;2.00;;
28427;SDS011;15662;49.128;8.520;2023-04-03T05:51:24;2.90;;;1.70;;
28427;SDS011;15662;49.128;8.520;2023-04-03T05:54:41;2.35;;;1.67;;
28427;SDS011;15662;49.128;8.520;2023-04-03T05:56:56;2.70;;;1.92;;
28427;SDS011;15662;49.128;8.520;2023-04-03T05:59:27;2.80;;;2.13;;
28427;SDS011;15662;49.128;8.520;2023-04-03T06:01:57;3.10;;;1.98;;
28427;SDS011;15662;49.128;8.520;2023-04-03T06:04:26;3.38;;;2.40;;
28427;SDS011;15662;49.128;8.520;2023-04-03T06:06:55;3.08;;;2.20;;
28427;SDS011;15662;49.128;8.520;2023-04-03T06:09:27;3.70;;;2.40;;
28427;SDS011;15662;49.128;8.520;2023-04-03T06:11:56;3.35;;;2.33;;
28427;SDS011;15662;49.128;8.520;2023-04-03T06:14:27;3.35;;;1.75;;
28427;SDS011;15662;49.128;8.520;2023-04-03T06:16:55;5.93;;;3.25;;
28427;SDS011;15662;49.128;8.520;2023-04-03T06:19:23;2.33;;;2.00;;
28427;SDS011;15662;49.128;8.520;2023-04-03T06:21:55;2.42;;;1.70;;
28427;SDS011;15662;49.128;8.520;2023-04-03T06:24:23;2.15;;;1.73;;
28427;SDS011;15662;49.128;8.520;2023-04-03T06:26:53;2.65;;;1.67;;
28427;SDS011;15662;49.128;8.520;2023-04-03T06:29:21;1.60;;;1.50;;
28427;SDS011;15662;49.128;8.520;2023-04-03T06:31:51;2.78;;;1.98;;
28427;SDS011;15662;49.128;8.520;2023-04-03T06:34:24;1.88;;;1.70;;
28427;SDS011;15662;49.128;8.520;2023-04-03T06:39:23;1.60;;;1.50;;
28427;SDS011;15662;49.128;8.520;2023-04-03T06:41:53;2.47;;;1.80;;
28427;SDS011;15662;49.128;8.520;2023-04-03T06:44:29;1.70;;;1.60;;
28427;SDS011;15662;49.128;8.520;2023-04-03T06:46:57;4.45;;;2.00;;
28427;SDS011;15662;49.128;8.520;2023-04-03T06:49:24;1.85;;;1.73;;
28427;SDS011;15662;49.128;8.520;2023-04-03T06:51:53;3.13;;;1.90;;
28427;SDS011;15662;49.128;8.520;2023-04-03T06:54:22;3.17;;;2.15;;
28427;SDS011;15662;49.128;8.520;2023-04-03T06:56:50;1.83;;;1.70;;
28427;SDS011;15662;49.128;8.520;2023-04-03T06:59:18;2.83;;;1.92;;
28427;SDS011;15662;49.128;8.520;2023-04-03T07:01:47;3.88;;;1.80;;
28427;SDS011;15662;49.128;8.520;2023-04-03T07:04:16;3.35;;;2.30;;
28427;SDS011;15662;49.128;8.520;2023-04-03T07:06:46;1.92;;;1.73;;
28427;SDS011;15662;49.128;8.520;2023-04-03T07:09:14;2.00;;;1.90;;
28427;SDS011;15662;49.128;8.520;2023-04-03T07:11:42;2.20;;;2.00;;
28427;SDS011;15662;49.128;8.520;2023-04-03T07:14:10;2.10;;;1.90;;
28427;SDS011;15662;49.128;8.520;2023-04-03T07:16:38;2.22;;;1.92;;
28427;SDS011;15662;49.128;8.520;2023-04-03T07:19:13;2.42;;;2.17;;
28427;SDS011;15662;49.128;8.520;2023-04-03T07:21:41;2.25;;;1.90;;
28427;SDS011;15662;49.128;8.520;2023-04-03T07:24:11;1.95;;;1.77;;
28427;SDS011;15662;49.128;8.520;2023-04-03T07:26:42;3.33;;;2.00;;
28427;SDS011;15662;49.128;8.520;2023-04-03T07:29:13;2.95;;;2.10;;
28427;SDS011;15662;49.128;8.520;2023-04-03T07:31:41;2.65;;;2.10;;
28427;SDS011;15662;49.128;8.520;2023-04-03T07:34:10;4.72;;;2.03;;
28427;SDS011;15662;49.128;8.520;2023-04-03T07:36:38;4.18;;;2.65;;
28427;SDS011;15662;49.128;8.520;2023-04-03T07:39:06;3.85;;;2.38;;
28427;SDS011;15662;49.128;8.520;2023-04-03T07:41:37;2.75;;;2.33;;
28427;SDS011;15662;49.128;8.520;2023-04-03T07:44:05;3.35;;;2.35;;
28427;SDS011;15662;49.128;8.520;2023-04-03T07:46:33;4.47;;;2.67;;
28427;SDS011;15662;49.128;8.520;2023-04-03T07:49:00;2.70;;;2.28;;
28427;SDS011;15662;49.128;8.520;2023-04-03T07:51:30;4.13;;;2.30;;
28427;SDS011;15662;49.128;8.520;2023-04-03T07:53:58;4.00;;;2.20;;
28427;SDS011;15662;49.128;8.520;2023-04-03T07:56:28;3.72;;;2.28;;
28427;SDS011;15662;49.128;8.520;2023-04-03T07:59:00;2.67;;;2.15;;
28427;SDS011;15662;49.128;8.520;2023-04-03T08:01:28;3.22;;;2.30;;
28427;SDS011;15662;49.128;8.520;2023-04-03T08:04:00;4.75;;;2.13;;
28427;SDS011;15662;49.128;8.520;2023-04-03T08:06:28;3.20;;;2.20;;
28427;SDS011;15662;49.128;8.520;2023-04-03T08:09:13;2.17;;;1.98;;
28427;SDS011;15662;49.128;8.520;2023-04-03T08:11:42;3.20;;;2.20;;
28427;SDS011;15662;49.128;8.520;2023-04-03T08:14:11;2.30;;;2.08;;
28427;SDS011;15662;49.128;8.520;2023-04-03T08:16:46;2.97;;;2.28;;
28427;SDS011;15662;49.128;8.520;2023-04-03T08:19:17;4.05;;;2.35;;
28427;SDS011;15662;49.128;8.520;2023-04-03T08:21:55;3.65;;;1.80;;
28427;SDS011;15662;49.128;8.520;2023-04-03T08:24:28;5.63;;;3.05;;
28427;SDS011;15662;49.128;8.520;2023-04-03T08:26:58;5.65;;;2.83;;
28427;SDS011;15662;49.128;8.520;2023-04-03T08:29:26;4.13;;;2.55;;
28427;SDS011;15662;49.128;8.520;2023-04-03T08:31:54;4.13;;;2.00;;
28427;SDS011;15662;49.128;8.520;2023-04-03T08:34:22;5.40;;;1.80;;
28427;SDS011;15662;49.128;8.520;2023-04-03T08:36:53;3.47;;;2.00;;
28427;SDS011;15662;49.128;8.520;2023-04-03T08:39:21;3.70;;;1.80;;
28427;SDS011;15662;49.128;8.520;2023-04-03T08:41:49;5.15;;;2.70;;
28427;SDS011;15662;49.128;8.520;2023-04-03T08:44:24;3.00;;;1.80;;
28427;SDS011;15662;49.128;8.520;2023-04-03T08:50:12;2.58;;;2.22;;
28427;SDS011;15662;49.128;8.520;2023-04-03T08:52:52;2.83;;;1.88;;
28427;SDS011;15662;49.128;8.520;2023-04-03T08:55:26;2.95;;;2.05;;
28427;SDS011;15662;49.128;8.520;2023-04-03T08:58:16;4.18;;;2.00;;
28427;SDS011;15662;49.128;8.520;2023-04-03T09:00:49;3.78;;;1.80;;
28427;SDS011;15662;49.128;8.520;2023-04-03T09:03:44;3.33;;;1.80;;
28427;SDS011;15662;49.128;8.520;2023-04-03T09:06:29;2.70;;;1.67;;
28427;SDS011;15662;49.128;8.520;2023-04-03T09:12:00;4.97;;;1.77;;
28427;SDS011;15662;49.128;8.520;2023-04-03T09:14:46;2.80;;;1.60;;
28427;SDS011;15662;49.128;8.520;2023-04-03T09:17:35;1.48;;;1.10;;
28427;SDS011;15662;49.128;8.520;2023-04-03T09:23:42;1.90;;;1.38;;
28427;SDS011;15662;49.128;8.520;2023-04-03T09:26:24;1.08;;;1.05;;
28427;SDS011;15662;49.128;8.520;2023-04-03T09:29:00;2.80;;;1.25;;
28427;SDS011;15662;49.128;8.520;2023-04-03T09:31:36;3.20;;;1.40;;
28427;SDS011;15662;49.128;8.520;2023-04-03T09:36:51;2.08;;;1.50;;
28427;SDS011;15662;49.128;8.520;2023-04-03T09:39:28;2.40;;;1.30;;
28427;SDS011;15662;49.128;8.520;2023-04-03T09:41:59;2.72;;;1.20;;
28427;SDS011;15662;49.128;8.520;2023-04-03T09:44:36;2.83;;;1.40;;
28427;SDS011;15662;49.128;8.520;2023-04-03T09:47:18;2.42;;;1.23;;
28427;SDS011;15662;49.128;8.520;2023-04-03T09:52:41;3.47;;;1.40;;
28427;SDS011;15662;49.128;8.520;2023-04-03T09:55:19;2.40;;;1.10;;
28427;SDS011;15662;49.128;8.520;2023-04-03T09:58:04;2.35;;;0.90;;
28427;SDS011;15662;49.128;8.520;2023-04-03T10:00:54;2.45;;;1.13;;
28427;SDS011;15662;49.128;8.520;2023-04-03T10:03:28;1.20;;;1.10;;
28427;SDS011;15662;49.128;8.520;2023-04-03T10:06:03;2.00;;;1.10;;
28427;SDS011;15662;49.128;8.520;2023-04-03T10:08:59;1.92;;;1.00;;
28427;SDS011;15662;49.128;8.520;2023-04-03T10:11:32;5.80;;;2.60;;
28427;SDS011;15662;49.128;8.520;2023-04-03T10:14:01;3.85;;;2.10;;
28427;SDS011;15662;49.128;8.520;2023-04-03T10:16:46;7.43;;;2.50;;
28427;SDS011;15662;49.128;8.520;2023-04-03T10:22:15;3.60;;;1.52;;
28427;SDS011;15662;49.128;8.520;2023-04-03T10:28:49;1.77;;;1.15;;
28427;SDS011;15662;49.128;8.520;2023-04-03T10:31:45;1.08;;;0.98;;
28427;SDS011;15662;49.128;8.520;2023-04-03T10:43:52;1.50;;;0.98;;
28427;SDS011;15662;49.128;8.520;2023-04-03T10:46:41;3.10;;;1.58;;
28427;SDS011;15662;49.128;8.520;2023-04-03T10:49:39;6.97;;;2.93;;
28427;SDS011;15662;49.128;8.520;2023-04-03T10:58:54;2.38;;;1.15;;
28427;SDS011;15662;49.128;8.520;2023-04-03T11:01:13;6.03;;;2.30;;
28427;SDS011;15662;49.128;8.520;2023-04-03T11:03:52;2.15;;;1.20;;
28427;SDS011;15662;49.128;8.520;2023-04-03T11:06:31;2.38;;;1.13;;
28427;SDS011;15662;49.128;8.520;2023-04-03T11:12:09;2.45;;;1.20;;
28427;SDS011;15662;49.128;8.520;2023-04-03T11:14:44;3.33;;;1.55;;
28427;SDS011;15662;49.128;8.520;2023-04-03T11:22:48;1.15;;;0.90;;
28427;SDS011;15662;49.128;8.520;2023-04-03T11:25:22;2.65;;;1.50;;
28427;SDS011;15662;49.128;8.520;2023-04-03T11:27:54;1.63;;;1.10;;
28427;SDS011;15662;49.128;8.520;2023-04-03T11:33:41;2.80;;;1.15;;
28427;SDS011;15662;49.128;8.520;2023-04-03T11:36:40;2.80;;;1.30;;
28427;SDS011;15662;49.128;8.520;2023-04-03T11:39:24;1.55;;;1.20;;
28427;SDS011;15662;49.128;8.520;2023-04-03T11:42:15;1.73;;;0.95;;
28427;SDS011;15662;49.128;8.520;2023-04-03T11:48:05;1.60;;;0.95;;
28427;SDS011;15662;49.128;8.520;2023-04-03T11:50:51;1.85;;;1.10;;
28427;SDS011;15662;49.128;8.520;2023-04-03T11:56:26;3.67;;;1.63;;
28427;SDS011;15662;49.128;8.520;2023-04-03T12:04:22;0.98;;;0.70;;
28427;SDS011;15662;49.128;8.520;2023-04-03T12:07:01;1.05;;;0.88;;
28427;SDS011;15662;49.128;8.520;2023-04-03T12:17:44;3.58;;;1.20;;
28427;SDS011;15662;49.128;8.520;2023-04-03T12:20:46;1.85;;;1.27;;
28427;SDS011;15662;49.128;8.520;2023-04-03T12:23:29;4.55;;;1.45;;
28427;SDS011;15662;49.128;8.520;2023-04-03T12:26:05;2.25;;;1.40;;
28427;SDS011;15662;49.128;8.520;2023-04-03T12:29:10;1.63;;;1.30;;
28427;SDS011;15662;49.128;8.520;2023-04-03T12:35:11;1.73;;;1.17;;
28427;SDS011;15662;49.128;8.520;2023-04-03T12:43:50;7.63;;;1.25;;
28427;SDS011;15662;49.128;8.520;2023-04-03T12:46:48;1.67;;;1.33;;
28427;SDS011;15662;49.128;8.520;2023-04-03T12:49:41;1.50;;;1.25;;
28427;SDS011;15662;49.128;8.520;2023-04-03T12:55:15;3.25;;;1.27;;
28427;SDS011;15662;49.128;8.520;2023-04-03T13:00:31;1.35;;;1.05;;
28427;SDS011;15662;49.128;8.520;2023-04-03T13:03:02;2.03;;;1.20;;
28427;SDS011;15662;49.128;8.520;2023-04-03T13:05:34;1.50;;;1.13;;
28427;SDS011;15662;49.128;8.520;2023-04-03T13:08:04;2.03;;;1.40;;
28427;SDS011;15662;49.128;8.520;2023-04-03T13:10:49;3.08;;;1.42;;
28427;SDS011;15662;49.128;8.520;2023-04-03T13:13:27;2.30;;;1.23;;
28427;SDS011;15662;49.128;8.520;2023-04-03T13:15:57;3.80;;;1.35;;
28427;SDS011;15662;49.128;8.520;2023-04-03T13:20:57;4.03;;;1.92;;
28427;SDS011;15662;49.128;8.520;2023-04-03T13:23:38;2.08;;;1.58;;
28427;SDS011;15662;49.128;8.520;2023-04-03T13:26:11;3.15;;;1.60;;
28427;SDS011;15662;49.128;8.520;2023-04-03T13:33:52;1.95;;;1.30;;
28427;SDS011;15662;49.128;8.520;2023-04-03T13:36:39;1.77;;;1.30;;
28427;SDS011;15662;49.128;8.520;2023-04-03T13:39:23;3.20;;;1.40;;
28427;SDS011;15662;49.128;8.520;2023-04-03T13:42:22;1.40;;;1.17;;
28427;SDS011;15662;49.128;8.520;2023-04-03T13:48:14;3.10;;;1.35;;
28427;SDS011;15662;49.128;8.520;2023-04-03T13:53:26;1.83;;;1.15;;
28427;SDS011;15662;49.128;8.520;2023-04-03T13:56:06;2.40;;;1.30;;
28427;SDS011;15662;49.128;8.520;2023-04-03T13:58:54;1.85;;;1.40;;
28427;SDS011;15662;49.128;8.520;2023-04-03T14:01:40;4.53;;;1.45;;
28427;SDS011;15662;49.128;8.520;2023-04-03T14:04:51;2.65;;;1.15;;
28427;SDS011;15662;49.128;8.520;2023-04-03T14:07:29;2.85;;;1.40;;
28427;SDS011;15662;49.128;8.520;2023-04-03T14:09:58;2.83;;;1.58;;
28427;SDS011;15662;49.128;8.520;2023-04-03T14:12:31;2.95;;;1.60;;
28427;SDS011;15662;49.128;8.520;2023-04-03T14:15:04;3.00;;;1.38;;
28427;SDS011;15662;49.128;8.520;2023-04-03T14:17:55;1.20;;;1.10;;
28427;SDS011;15662;49.128;8.520;2023-04-03T14:20:24;3.60;;;1.50;;
28427;SDS011;15662;49.128;8.520;2023-04-03T14:22:53;2.10;;;1.42;;
28427;SDS011;15662;49.128;8.520;2023-04-03T14:25:22;1.85;;;1.48;;
28427;SDS011;15662;49.128;8.520;2023-04-03T14:27:53;1.88;;;1.30;;
28427;SDS011;15662;49.128;8.520;2023-04-03T14:33:00;1.27;;;1.00;;
28427;SDS011;15662;49.128;8.520;2023-04-03T14:35:29;1.85;;;1.23;;
28427;SDS011;15662;49.128;8.520;2023-04-03T14:37:57;4.30;;;1.40;;
28427;SDS011;15662;49.128;8.520;2023-04-03T14:40:25;1.52;;;1.33;;
28427;SDS011;15662;49.128;8.520;2023-04-03T14:42:54;2.92;;;1.63;;
28427;SDS011;15662;49.128;8.520;2023-04-03T14:45:24;1.65;;;1.42;;
28427;SDS011;15662;49.128;8.520;2023-04-03T14:47:54;0.90;;;0.90;;
28427;SDS011;15662;49.128;8.520;2023-04-03T14:50:26;1.70;;;1.10;;
28427;SDS011;15662;49.128;8.520;2023-04-03T14:52:56;1.85;;;1.30;;
28427;SDS011;15662;49.128;8.520;2023-04-03T14:55:25;1.77;;;1.20;;
28427;SDS011;15662;49.128;8.520;2023-04-03T14:57:55;2.72;;;1.25;;
28427;SDS011;15662;49.128;8.520;2023-04-03T15:00:23;3.53;;;1.70;;
28427;SDS011;15662;49.128;8.520;2023-04-03T15:02:58;3.03;;;1.38;;
28427;SDS011;15662;49.128;8.520;2023-04-03T15:05:27;2.67;;;1.40;;
28427;SDS011;15662;49.128;8.520;2023-04-03T15:07:55;1.33;;;1.10;;
28427;SDS011;15662;49.128;8.520;2023-04-03T15:10:26;1.75;;;1.25;;
28427;SDS011;15662;49.128;8.520;2023-04-03T15:12:56;1.40;;;1.30;;
28427;SDS011;15662;49.128;8.520;2023-04-03T15:15:24;2.42;;;1.30;;
28427;SDS011;15662;49.128;8.520;2023-04-03T15:17:56;1.25;;;1.02;;
28427;SDS011;15662;49.128;8.520;2023-04-03T15:20:26;2.67;;;1.38;;
28427;SDS011;15662;49.128;8.520;2023-04-03T15:22:57;2.13;;;1.35;;
28427;SDS011;15662;49.128;8.520;2023-04-03T15:25:28;4.47;;;1.10;;
28427;SDS011;15662;49.128;8.520;2023-04-03T15:27:56;2.35;;;1.25;;
28427;SDS011;15662;49.128;8.520;2023-04-03T15:30:25;2.22;;;1.48;;
28427;SDS011;15662;49.128;8.520;2023-04-03T15:32:53;2.00;;;1.40;;
28427;SDS011;15662;49.128;8.520;2023-04-03T15:35:21;1.50;;;1.40;;
28427;SDS011;15662;49.128;8.520;2023-04-03T15:37:49;1.58;;;1.48;;
28427;SDS011;15662;49.128;8.520;2023-04-03T15:40:18;3.97;;;1.42;;
28427;SDS011;15662;49.128;8.520;2023-04-03T15:42:46;2.28;;;1.25;;
28427;SDS011;15662;49.128;8.520;2023-04-03T15:45:14;2.97;;;1.63;;
28427;SDS011;15662;49.128;8.520;2023-04-03T15:47:42;2.45;;;1.10;;
28427;SDS011;15662;49.128;8.520;2023-04-03T15:50:10;2.97;;;1.33;;
28427;SDS011;15662;49.128;8.520;2023-04-03T15:52:38;1.40;;;1.30;;
28427;SDS011;15662;49.128;8.520;2023-04-03T15:55:06;1.45;;;1.25;;
28427;SDS011;15662;49.128;8.520;2023-04-03T15:57:35;1.45;;;1.20;;
28427;SDS011;15662;49.128;8.520;2023-04-03T16:00:08;1.40;;;1.30;;
28427;SDS011;15662;49.128;8.520;2023-04-03T16:02:41;1.40;;;1.30;;
28427;SDS011;15662;49.128;8.520;2023-04-03T16:05:15;1.58;;;1.10;;
28427;SDS011;15662;49.128;8.520;2023-04-03T16:07:57;5.38;;;1.40;;
28427;SDS011;15662;49.128;8.520;2023-04-03T16:10:30;1.58;;;1.30;;
28427;SDS011;15662;49.128;8.520;2023-04-03T16:13:01;3.10;;;1.30;;
28427;SDS011;15662;49.128;8.520;2023-04-03T16:15:39;2.20;;;1.33;;
28427;SDS011;15662;49.128;8.520;2023-04-03T16:18:15;1.70;;;1.15;;
28427;SDS011;15662;49.128;8.520;2023-04-03T16:20:45;1.83;;;1.50;;
28427;SDS011;15662;49.128;8.520;2023-04-03T16:23:18;1.50;;;1.40;;
28427;SDS011;15662;49.128;8.520;2023-04-03T16:25:49;12.23;;;1.48;;
28427;SDS011;15662;49.128;8.520;2023-04-03T16:28:19;1.40;;;1.30;;
28427;SDS011;15662;49.128;8.520;2023-04-03T16:30:51;1.98;;;1.25;;
28427;SDS011;15662;49.128;8.520;2023-04-03T16:33:45;1.33;;;1.10;;
28427;SDS011;15662;49.128;8.520;2023-04-03T16:36:20;2.47;;;1.42;;
28427;SDS011;15662;49.128;8.520;2023-04-03T16:39:17;2.65;;;1.33;;
28427;SDS011;15662;49.128;8.520;2023-04-03T16:41:49;2.65;;;1.58;;
28427;SDS011;15662;49.128;8.520;2023-04-03T16:44:31;1.30;;;1.17;;
28427;SDS011;15662;49.128;8.520;2023-04-03T16:47:07;3.78;;;1.33;;
28427;SDS011;15662;49.128;8.520;2023-04-03T16:49:36;1.80;;;1.27;;
28427;SDS011;15662;49.128;8.520;2023-04-03T16:54:38;2.88;;;1.27;;
28427;SDS011;15662;49.128;8.520;2023-04-03T16:57:08;1.45;;;1.05;;
28427;SDS011;15662;49.128;8.520;2023-04-03T16:59:37;2.40;;;1.08;;
28427;SDS011;15662;49.128;8.520;2023-04-03T17:02:06;1.92;;;1.42;;
28427;SDS011;15662;49.128;8.520;2023-04-03T17:04:37;1.80;;;1.30;;
28427;SDS011;15662;49.128;8.520;2023-04-03T17:07:06;1.42;;;1.20;;
28427;SDS011;15662;49.128;8.520;2023-04-03T17:09:40;1.35;;;1.25;;
28427;SDS011;15662;49.128;8.520;2023-04-03T17:12:09;1.30;;;1.20;;
28427;SDS011;15662;49.128;8.520;2023-04-03T17:14:43;2.35;;;1.45;;
28427;SDS011;15662;49.128;8.520;2023-04-03T17:17:14;2.25;;;1.45;;